Time;durP1;ratioP1;P1;durP2;ratioP2;P2;SDS_P1;SDS_P2;PMS_P1;PMS_P2;Temp;Humidity;BMP_temperature;BMP_pressure;BME280_temperature;BME280_humidity;BME280_pressure;Samples;Min_cycle;Max_cycle;Signal;HPM_P1;HPM_P2
2023/06/05 00:00:49;;;;;;;8.60;2.22;;;;;;;12.11;51.83;101884.00;5073049;28;20115;-55
2023/06/05 00:03:17;;;;;;;6.55;2.67;;;;;;;12.05;52.51;101881.59;5074603;28;20105;-57
2023/06/05 00:05:45;;;;;;;5.75;2.70;;;;;;;11.97;52.58;101881.00;5090669;28;20060;-55
2023/06/05 00:08:12;;;;;;;5.40;2.42;;;;;;;11.93;52.82;101875.78;5076823;28;20048;-55
2023/06/05 00:10:38;;;;;;;6.93;2.63;;;;;;;11.92;52.42;101882.00;5073933;28;20095;-55
2023/06/05 00:13:05;;;;;;;3.67;2.42;;;;;;;11.88;52.60;101883.00;5071909;28;20056;-55
2023/06/05 00:15:35;;;;;;;6.38;1.88;;;;;;;11.90;52.79;101886.44;5072968;28;20140;-55
2023/06/05 00:18:03;;;;;;;3.93;2.13;;;;;;;11.83;52.71;101886.69;5061548;28;20075;-55
2023/06/05 00:20:30;;;;;;;4.43;2.70;;;;;;;11.79;52.84;101887.72;5053409;28;20053;-55
2023/06/05 00:22:57;;;;;;;6.40;2.30;;;;;;;11.75;53.09;101886.94;5062023;28;20040;-55
2023/06/05 00:25:24;;;;;;;8.25;2.25;;;;;;;11.61;53.45;101894.47;5073020;28;20098;-55
2023/06/05 00:27:50;;;;;;;7.88;2.55;;;;;;;11.53;53.58;101892.94;5072796;28;20143;-55
2023/06/05 00:30:17;;;;;;;5.63;2.35;;;;;;;11.51;54.15;101897.41;5073370;28;20055;-55
2023/06/05 00:32:43;;;;;;;4.25;2.03;;;;;;;11.53;54.04;101894.72;5072053;28;20048;-55
2023/06/05 00:35:10;;;;;;;5.07;2.15;;;;;;;11.49;54.21;101891.31;5072982;28;20063;-55
2023/06/05 00:37:37;;;;;;;2.63;1.80;;;;;;;11.45;54.12;101900.25;5072548;28;20080;-55
2023/06/05 00:40:05;;;;;;;12.10;2.85;;;;;;;11.37;54.54;101896.97;5071775;28;20071;-55
2023/06/05 00:42:32;;;;;;;4.25;1.98;;;;;;;11.31;54.28;101902.44;5073306;28;20108;-55
2023/06/05 00:44:58;;;;;;;5.18;2.53;;;;;;;11.30;55.31;101906.88;5072424;28;20048;-57
2023/06/05 00:47:25;;;;;;;6.93;2.58;;;;;;;11.25;54.82;101898.22;5071791;28;20052;-55
2023/06/05 00:49:52;;;;;;;7.28;2.22;;;;;;;11.25;55.29;101898.22;5071343;28;20048;-55
2023/06/05 00:52:19;;;;;;;5.38;2.20;;;;;;;11.22;54.95;101895.66;5072750;28;20060;-56
2023/06/05 00:54:46;;;;;;;8.18;2.38;;;;;;;11.27;55.61;101891.09;5072081;28;20545;-55
2023/06/05 00:57:12;;;;;;;5.43;2.28;;;;;;;11.15;55.30;101892.31;5072644;28;20076;-55
2023/06/05 00:59:40;;;;;;;7.43;2.40;;;;;;;11.13;54.36;101883.56;5072255;28;20382;-56
2023/06/05 01:02:06;;;;;;;6.13;2.65;;;;;;;11.19;54.64;101883.38;5072683;28;20110;-56
2023/06/05 01:04:36;;;;;;;3.42;1.85;;;;;;;11.23;54.41;101883.28;5072051;28;20087;-55
2023/06/05 01:07:03;;;;;;;4.75;2.08;;;;;;;11.24;54.86;101879.72;5071513;28;20044;-56
2023/06/05 01:09:30;;;;;;;5.05;1.95;;;;;;;11.23;54.46;101877.97;5073248;28;20049;-56
2023/06/05 01:12:26;;;;;;;4.78;2.20;;;;;;;11.15;54.62;101879.09;5073022;28;20045;-55
2023/06/05 01:14:58;;;;;;;5.78;2.78;;;;;;;11.16;54.51;101887.91;5072750;28;20136;-55
2023/06/05 01:17:28;;;;;;;6.93;2.55;;;;;;;11.11;54.91;101879.22;5071612;28;20056;-56
2023/06/05 01:19:58;;;;;;;6.00;2.22;;;;;;;10.98;56.03;101882.22;5072751;28;20076;-56
2023/06/05 01:22:28;;;;;;;4.10;2.30;;;;;;;10.95;55.16;101878.81;5072536;28;20751;-57
2023/06/05 01:24:54;;;;;;;3.40;2.08;;;;;;;10.99;56.07;101889.25;5071822;28;20390;-56
2023/06/05 01:27:33;;;;;;;5.80;2.40;;;;;;;10.96;56.24;101878.75;5071797;28;20051;-56
2023/06/05 01:30:24;;;;;;;4.40;2.17;;;;;;;10.92;56.55;101879.78;5072809;28;20052;-56
2023/06/05 01:33:02;;;;;;;3.33;2.35;;;;;;;10.87;56.15;101880.81;5072403;28;20048;-55
2023/06/05 01:35:33;;;;;;;7.38;2.17;;;;;;;10.89;56.73;101881.66;5071140;28;20242;-56
2023/06/05 01:38:02;;;;;;;;;;;;;;;10.83;56.01;101885.31;5072778;28;20372;-55
2023/06/05 01:40:30;;;;;;;4.68;2.20;;;;;;;10.82;55.86;101879.19;5072306;28;20342;-56
2023/06/05 01:42:59;;;;;;;8.32;2.67;;;;;;;10.81;56.42;101877.44;5072146;28;20118;-56
2023/06/05 01:45:27;;;;;;;4.90;2.30;;;;;;;10.81;56.46;101882.72;5071089;28;20136;-56
2023/06/05 01:47:54;;;;;;;5.18;1.95;;;;;;;10.78;56.88;101885.44;5071888;28;20048;-55
2023/06/05 01:50:21;;;;;;;4.93;2.00;;;;;;;10.72;57.40;101882.97;5072747;28;20114;-55
2023/06/05 01:52:49;;;;;;;8.73;2.53;;;;;;;10.62;57.41;101884.16;5070427;28;20063;-55
2023/06/05 01:55:23;;;;;;;3.75;2.60;;;;;;;10.56;58.11;101886.97;5071701;28;20044;-55
2023/06/05 01:57:50;;;;;;;5.78;2.20;;;;;;;10.49;57.35;101882.75;5068966;28;20102;-56
2023/06/05 02:00:17;;;;;;;4.28;2.53;;;;;;;10.49;57.76;101890.69;5074444;28;20471;-56
2023/06/05 02:02:46;;;;;;;6.88;2.28;;;;;;;10.45;58.11;101885.47;5075468;28;20048;-56
2023/06/05 02:05:15;;;;;;;5.95;2.10;;;;;;;10.39;58.01;101885.63;5075815;28;20044;-56
2023/06/05 02:07:49;;;;;;;8.40;3.13;;;;;;;10.38;58.17;101883.94;5075552;28;20045;-55
2023/06/05 02:10:18;;;;;;;7.30;2.22;;;;;;;10.37;58.30;101884.81;5075270;28;20064;-56
2023/06/05 02:12:46;;;;;;;6.30;2.25;;;;;;;10.35;58.29;101876.06;5076320;28;20044;-56
2023/06/05 02:15:14;;;;;;;7.30;2.10;;;;;;;10.27;58.85;101870.94;5075335;28;20051;-55
2023/06/05 02:17:44;;;;;;;4.63;2.17;;;;;;;10.24;59.59;101859.59;5076060;28;20048;-55
2023/06/05 02:20:12;;;;;;;3.70;2.45;;;;;;;10.20;58.82;101865.84;5075040;28;20440;-56
2023/06/05 02:22:42;;;;;;;6.35;1.85;;;;;;;10.22;59.33;101866.72;5090494;28;20125;-56
2023/06/05 02:25:10;;;;;;;8.23;2.78;;;;;;;10.26;59.04;101868.34;5083295;28;20051;-56
2023/06/05 02:27:37;;;;;;;5.25;2.75;;;;;;;10.24;59.78;101854.31;5074266;28;20148;-55
2023/06/05 02:30:04;;;;;;;8.18;2.10;;;;;;;10.21;59.72;101859.69;5075721;28;20074;-55
2023/06/05 02:32:31;;;;;;;4.95;2.30;;;;;;;10.21;59.03;101859.69;5075929;28;20084;-56
2023/06/05 02:34:58;;;;;;;5.85;2.20;;;;;;;10.20;59.57;101858.81;5075587;28;20052;-55
2023/06/05 02:37:26;;;;;;;8.57;2.13;;;;;;;10.15;59.47;101849.25;5074279;28;20048;-55
2023/06/05 02:39:53;;;;;;;4.25;2.20;;;;;;;10.22;59.49;101857.00;5074796;28;20076;-55
2023/06/05 02:42:19;;;;;;;4.90;2.20;;;;;;;10.23;59.63;101847.28;5074911;28;20155;-55
2023/06/05 02:44:46;;;;;;;4.20;2.28;;;;;;;10.20;59.61;101852.66;5074090;28;20047;-55
2023/06/05 02:47:13;;;;;;;3.22;2.30;;;;;;;10.16;59.53;101853.66;5074591;28;20052;-55
2023/06/05 02:49:40;;;;;;;3.88;2.42;;;;;;;10.08;59.70;101857.34;5076866;28;20086;-56
2023/06/05 02:52:06;;;;;;;6.55;2.42;;;;;;;10.11;59.62;101859.06;5090171;28;20060;-56
2023/06/05 02:54:33;;;;;;;7.53;2.83;;;;;;;10.16;59.36;101856.28;5080285;28;20051;-55
2023/06/05 02:57:01;;;;;;;6.07;2.45;;;;;;;10.16;59.54;101845.72;5083790;28;20138;-55
2023/06/05 02:59:27;;;;;;;7.50;2.45;;;;;;;10.08;59.87;101849.41;5091217;28;20461;-56
2023/06/05 03:01:54;;;;;;;5.05;2.30;;;;;;;10.10;59.75;101847.63;5086041;28;20460;-56
2023/06/05 03:04:21;;;;;;;4.32;2.80;;;;;;;10.11;59.84;101846.69;5081935;28;20170;-56
2023/06/05 03:06:48;;;;;;;5.93;2.13;;;;;;;10.06;60.44;101845.97;5079684;28;20127;-56
2023/06/05 03:09:15;;;;;;;5.32;1.98;;;;;;;10.03;60.26;101848.69;5075201;28;20048;-56
2023/06/05 03:11:42;;;;;;;4.70;1.98;;;;;;;10.03;60.41;101843.41;5073141;28;20059;-56
2023/06/05 03:14:08;;;;;;;13.43;2.30;;;;;;;9.99;60.05;101849.69;5074931;28;20054;-56
2023/06/05 03:16:41;;;;;;;4.55;2.03;;;;;;;10.00;60.08;101846.13;5074199;28;20048;-56
2023/06/05 03:19:08;;;;;;;5.43;2.30;;;;;;;10.03;59.59;101851.31;5074683;28;20076;-56
2023/06/05 03:21:35;;;;;;;3.20;2.08;;;;;;;10.08;59.67;101851.22;5073409;28;20052;-56
2023/06/05 03:24:02;;;;;;;6.65;2.53;;;;;;;10.07;59.90;101847.72;5074720;28;20132;-57
2023/06/05 03:26:29;;;;;;;5.10;2.10;;;;;;;10.03;60.19;101850.47;5074536;28;20052;-56
2023/06/05 03:28:55;;;;;;;6.65;2.63;;;;;;;10.05;60.18;101859.22;5074457;28;20407;-55
2023/06/05 03:31:22;;;;;;;4.80;2.65;;;;;;;10.05;59.74;101854.81;5073845;28;20051;-56
2023/06/05 03:33:48;;;;;;;6.25;2.03;;;;;;;10.04;60.17;101847.78;5074745;28;20539;-56
2023/06/05 03:36:17;;;;;;;3.78;2.22;;;;;;;10.08;60.18;101854.72;5074488;28;20346;-56
2023/06/05 03:38:44;;;;;;;3.63;2.25;;;;;;;10.13;60.02;101851.09;5074052;28;20448;-56
2023/06/05 03:41:11;;;;;;;2.60;1.80;;;;;;;10.16;59.80;101856.28;5074561;28;20053;-56
2023/06/05 03:43:37;;;;;;;5.70;2.40;;;;;;;10.19;59.42;101854.44;5078963;28;20040;-56
2023/06/05 03:46:04;;;;;;;4.88;2.22;;;;;;;10.26;59.36;101863.91;5094342;28;20060;-56
2023/06/05 03:48:31;;;;;;;3.80;2.30;;;;;;;10.25;59.45;101851.63;5086938;28;20064;-56
2023/06/05 03:51:00;;;;;;;6.78;2.38;;;;;;;10.28;59.47;101851.56;5073971;28;20040;-56
2023/06/05 03:53:29;;;;;;;10.27;2.53;;;;;;;10.33;59.20;101847.94;5057296;28;20083;-55
2023/06/05 03:55:56;;;;;;;4.22;2.30;;;;;;;10.39;58.72;101850.44;5071824;28;20076;-55
2023/06/05 03:58:23;;;;;;;4.00;1.90;;;;;;;10.42;58.86;101853.84;5073921;28;20048;-55
2023/06/05 04:00:50;;;;;;;10.75;3.38;;;;;;;10.51;58.56;101857.16;5076999;28;20062;-56
2023/06/05 04:03:18;;;;;;;4.75;2.28;;;;;;;10.54;58.30;101857.06;5069935;28;20131;-56
2023/06/05 04:05:45;;;;;;;5.43;2.72;;;;;;;10.55;58.53;101856.16;5078855;28;20048;-55
2023/06/05 04:08:11;;;;;;;5.68;2.55;;;;;;;10.60;58.83;101867.47;5074388;28;20056;-57
2023/06/05 04:10:38;;;;;;;7.13;2.40;;;;;;;10.64;59.16;101858.53;5068529;28;20135;-56
2023/06/05 04:13:05;;;;;;;8.20;2.63;;;;;;;10.64;59.64;101869.09;5070311;28;20083;-57
2023/06/05 04:15:33;;;;;;;5.90;2.20;;;;;;;10.70;59.09;101865.44;5067375;28;20364;-56
2023/06/05 04:18:00;;;;;;;5.63;1.92;;;;;;;10.75;59.16;101867.03;5061314;28;20109;-57
2023/06/05 04:20:27;;;;;;;3.13;2.00;;;;;;;10.78;59.35;101866.94;5068512;28;20076;-56
2023/06/05 04:22:53;;;;;;;4.53;2.28;;;;;;;10.81;59.66;101866.00;5066843;28;20052;-57
2023/06/05 04:25:20;;;;;;;6.25;2.33;;;;;;;10.87;60.17;101875.53;5060632;28;20466;-56
2023/06/05 04:27:50;;;;;;;11.88;2.65;;;;;;;10.93;59.38;101864.78;5062441;28;20416;-55
2023/06/05 04:30:17;;;;;;;6.15;2.08;;;;;;;11.00;59.38;101866.31;5063046;28;20151;-55
2023/06/05 04:32:52;;;;;;;5.75;2.40;;;;;;;11.05;58.53;101868.81;5068737;28;20085;-55
2023/06/05 04:35:23;;;;;;;6.38;2.10;;;;;;;11.12;58.17;101870.38;5065177;28;20044;-56
2023/06/05 04:37:50;;;;;;;9.13;2.33;;;;;;;11.22;57.63;101873.63;5063706;28;20057;-56
2023/06/05 04:40:19;;;;;;;7.05;2.28;;;;;;;11.26;57.70;101877.91;5066360;28;20445;-57
2023/06/05 04:42:46;;;;;;;6.18;2.58;;;;;;;11.34;57.30;101871.44;5082155;28;20052;-56
2023/06/05 04:45:12;;;;;;;4.80;2.75;;;;;;;11.40;57.38;101870.41;5072983;28;20094;-57
2023/06/05 04:47:39;;;;;;;4.13;2.20;;;;;;;11.45;56.99;101862.31;5065152;28;20134;-56
2023/06/05 04:50:06;;;;;;;4.50;1.98;;;;;;;11.56;57.37;101871.66;5066084;28;20103;-57
2023/06/05 04:52:39;;;;;;;6.13;2.20;;;;;;;11.72;56.67;101876.44;5064962;28;20087;-56
2023/06/05 04:55:07;;;;;;;6.63;2.15;;;;;;;11.73;57.01;101863.16;5067150;28;20072;-55
2023/06/05 04:57:33;;;;;;;5.35;2.17;;;;;;;11.84;56.81;101867.25;5066292;28;20075;-55
2023/06/05 05:00:04;;;;;;;8.73;2.28;;;;;;;11.97;56.58;101859.78;5065816;28;20481;-55
2023/06/05 05:02:30;;;;;;;5.43;3.00;;;;;;;12.00;56.21;101855.25;5066648;28;20075;-55
2023/06/05 05:04:57;;;;;;;4.05;2.20;;;;;;;12.07;56.60;101859.41;5064854;28;20540;-55
2023/06/05 05:07:26;;;;;;;13.20;3.58;;;;;;;12.17;56.40;101862.59;5061588;28;20049;-55
2023/06/05 05:09:52;;;;;;;11.75;2.58;;;;;;;12.24;56.27;101858.84;5063587;28;20151;-56
2023/06/05 05:12:19;;;;;;;8.48;2.60;;;;;;;12.28;55.93;101865.75;5061409;28;20065;-57
2023/06/05 05:14:45;;;;;;;5.32;1.90;;;;;;;12.33;56.11;101864.72;5063850;28;20140;-55
2023/06/05 05:17:14;;;;;;;7.72;2.40;;;;;;;12.46;55.03;101863.38;5064047;28;20145;-55
2023/06/05 05:19:40;;;;;;;4.25;2.00;;;;;;;12.69;54.49;101864.34;5071768;28;20261;-55
2023/06/05 05:22:07;;;;;;;3.67;2.28;;;;;;;12.79;54.31;101865.72;5071105;28;20055;-55
2023/06/05 05:24:33;;;;;;;3.60;1.88;;;;;;;12.82;54.66;101860.28;5072154;28;20087;-55
2023/06/05 05:27:00;;;;;;;6.47;2.22;;;;;;;12.89;54.39;101867.09;5067946;28;20152;-56
2023/06/05 05:29:27;;;;;;;10.48;1.90;;;;;;;13.00;54.05;101864.91;5071956;28;20099;-56
2023/06/05 05:31:54;;;;;;;6.45;3.17;;;;;;;13.14;53.15;101866.16;5072762;28;20098;-56
2023/06/05 05:34:21;;;;;;;3.05;1.70;;;;;;;13.23;53.27;101871.13;5071437;28;20040;-57
2023/06/05 05:36:47;;;;;;;5.43;2.60;;;;;;;13.34;52.71;101862.78;5074202;28;20512;-56
2023/06/05 05:39:14;;;;;;;5.90;1.63;;;;;;;13.44;52.25;101869.44;5076771;28;20048;-56
2023/06/05 05:41:41;;;;;;;3.75;1.98;;;;;;;13.56;51.16;101873.38;5076661;28;20178;-55
2023/06/05 05:44:08;;;;;;;4.05;2.38;;;;;;;13.67;51.33;101871.16;5072097;28;20129;-56
2023/06/05 05:46:34;;;;;;;3.25;1.92;;;;;;;13.81;51.15;101872.38;5075924;28;20139;-55
2023/06/05 05:49:01;;;;;;;8.88;1.98;;;;;;;13.88;51.12;101868.56;5075797;28;20083;-55
2023/06/05 05:51:28;;;;;;;3.40;1.63;;;;;;;13.94;51.22;101873.59;5071525;28;20049;-55
2023/06/05 05:53:55;;;;;;;3.85;1.60;;;;;;;14.03;50.99;101873.22;5066724;28;20074;-55
2023/06/05 05:56:21;;;;;;;12.10;2.33;;;;;;;14.23;50.43;101879.47;5075046;28;20052;-55
2023/06/05 05:58:48;;;;;;;5.50;2.03;;;;;;;14.30;50.36;101881.81;5062227;28;20060;-55
2023/06/05 06:01:15;;;;;;;8.90;2.55;;;;;;;14.37;50.48;101882.41;5075825;28;20056;-56
2023/06/05 06:03:42;;;;;;;6.75;2.13;;;;;;;14.63;49.52;101883.06;5072341;28;20052;-55
2023/06/05 06:06:10;;;;;;;5.75;2.00;;;;;;;14.82;48.40;101880.44;5076244;28;20082;-55
2023/06/05 06:08:36;;;;;;;8.85;1.75;;;;;;;14.97;48.25;101886.88;5077283;28;20051;-55
2023/06/05 06:11:06;;;;;;;10.95;2.17;;;;;;;15.08;47.27;101889.03;5074970;28;20086;-55
2023/06/05 06:13:33;;;;;;;4.03;1.58;;;;;;;15.22;46.38;101882.13;5076806;28;20051;-55
2023/06/05 06:16:02;;;;;;;11.43;2.38;;;;;;;15.41;46.41;101887.47;5074814;28;20040;-56
2023/06/05 06:18:29;;;;;;;7.25;2.20;;;;;;;15.48;46.96;101888.03;5076019;28;20175;-55
2023/06/05 06:20:55;;;;;;;6.65;2.10;;;;;;;15.63;45.16;101881.06;5072863;28;20054;-55
2023/06/05 06:23:22;;;;;;;9.20;2.28;;;;;;;15.74;45.86;101891.19;5075219;28;20056;-56
2023/06/05 06:25:51;;;;;;;8.02;2.40;;;;;;;15.88;45.35;101874.56;5073967;28;20127;-55
2023/06/05 06:28:19;;;;;;;4.97;2.33;;;;;;;16.04;45.35;101890.66;5060760;28;20057;-56
2023/06/05 06:30:46;;;;;;;22.90;2.13;;;;;;;16.12;44.82;101888.47;5061264;28;20045;-56
2023/06/05 06:33:13;;;;;;;10.38;2.38;;;;;;;16.33;44.09;101892.69;5055573;28;20080;-56
2023/06/05 06:35:40;;;;;;;8.55;2.10;;;;;;;16.51;44.16;101895.34;5060204;28;20078;-55
2023/06/05 06:38:06;;;;;;;10.70;2.28;;;;;;;16.62;43.95;101895.63;5072749;28;20056;-56
2023/06/05 06:40:33;;;;;;;9.60;2.10;;;;;;;16.75;43.79;101892.31;5069711;28;20068;-56
2023/06/05 06:43:00;;;;;;;5.15;1.73;;;;;;;16.89;43.09;101903.16;5073841;28;20044;-56
2023/06/05 06:45:26;;;;;;;6.38;2.42;;;;;;;17.06;42.19;101903.06;5074853;28;20140;-56
2023/06/05 06:47:53;;;;;;;7.03;2.13;;;;;;;17.16;41.78;101897.22;5075469;28;20051;-56
2023/06/05 06:50:33;;;;;;;13.55;2.10;;;;;;;17.32;41.83;101898.09;5055454;28;20053;-55
2023/06/05 06:52:59;;;;;;;6.30;1.67;;;;;;;17.46;41.13;101899.13;5072837;28;20139;-56
2023/06/05 06:55:26;;;;;;;7.93;2.13;;;;;;;17.55;41.35;101893.28;5073244;28;20143;-56
2023/06/05 06:57:53;;;;;;;8.10;2.08;;;;;;;17.74;41.32;101896.63;5070829;28;20213;-56
2023/06/05 07:00:20;;;;;;;16.98;2.15;;;;;;;17.87;40.92;101893.25;5074201;28;20131;-56
2023/06/05 07:02:47;;;;;;;12.07;2.28;;;;;;;17.94;41.06;101899.97;5074093;28;20129;-55
2023/06/05 07:05:14;;;;;;;12.85;1.98;;;;;;;18.08;40.52;101896.47;5071490;28;20113;-56
2023/06/05 07:07:41;;;;;;;7.55;1.80;;;;;;;18.16;38.93;101895.09;5064769;28;20072;-55
2023/06/05 07:10:08;;;;;;;5.85;1.90;;;;;;;18.32;39.52;101900.38;5053754;28;20053;-55
2023/06/05 07:12:34;;;;;;;4.65;2.33;;;;;;;18.55;38.85;101900.78;5071684;28;20045;-55
2023/06/05 07:15:02;;;;;;;7.28;2.15;;;;;;;18.70;36.89;101894.50;5068453;28;20048;-55
2023/06/05 07:17:30;;;;;;;6.80;2.20;;;;;;;18.82;37.08;101892.88;5063647;28;20053;-55
2023/06/05 07:19:57;;;;;;;4.32;1.38;;;;;;;18.94;36.59;101887.72;5074175;28;20055;-55
2023/06/05 07:22:29;;;;;;;5.72;1.48;;;;;;;19.15;36.25;101891.72;5073237;28;20113;-55
2023/06/05 07:24:55;;;;;;;5.03;1.67;;;;;;;19.35;35.75;101894.94;5071236;28;20044;-55
2023/06/05 07:27:22;;;;;;;8.48;2.20;;;;;;;19.40;36.10;101887.44;5073399;28;20052;-55
2023/06/05 07:29:49;;;;;;;6.50;2.05;;;;;;;19.49;36.10;101881.50;5074112;28;20124;-55
2023/06/05 07:32:18;;;;;;;5.32;1.58;;;;;;;19.68;34.84;101885.63;5073618;28;20064;-55
2023/06/05 07:34:45;;;;;;;9.43;2.30;;;;;;;19.79;34.20;101884.00;5070802;28;20052;-55
2023/06/05 07:37:11;;;;;;;6.65;2.50;;;;;;;19.93;34.60;101888.44;5071787;28;20101;-55
2023/06/05 07:39:38;;;;;;;8.68;1.50;;;;;;;20.06;34.61;101884.91;5073115;28;20155;-56
2023/06/05 07:42:05;;;;;;;5.38;1.90;;;;;;;20.23;33.85;101892.69;5071491;28;20041;-56
2023/06/05 07:44:32;;;;;;;4.90;1.65;;;;;;;20.06;32.28;101887.59;5069685;28;20062;-55
2023/06/05 07:46:58;;;;;;;8.35;1.60;;;;;;;20.24;32.86;101882.81;5071949;28;20044;-55
2023/06/05 07:49:25;;;;;;;6.45;1.80;;;;;;;20.28;31.91;101874.44;5073149;28;20603;-56
2023/06/05 07:51:51;;;;;;;4.45;1.50;;;;;;;20.48;32.69;101885.59;5070025;28;20443;-55
2023/06/05 07:54:19;;;;;;;7.13;1.65;;;;;;;20.70;31.94;101883.16;5072811;28;20087;-56
2023/06/05 07:56:48;;;;;;;7.60;1.50;;;;;;;20.74;31.66;101880.28;5068888;28;20129;-55
2023/06/05 07:59:16;;;;;;;6.10;2.17;;;;;;;20.74;30.32;101882.97;5061299;28;20063;-56
2023/06/05 08:01:43;;;;;;;3.80;1.02;;;;;;;20.94;30.24;101877.03;5067399;28;20052;-55
2023/06/05 08:04:10;;;;;;;9.82;2.40;;;;;;;21.06;29.25;101878.81;5071816;28;20076;-55
2023/06/05 08:06:37;;;;;;;5.82;1.60;;;;;;;21.13;29.22;101875.69;5064645;28;20155;-55
2023/06/05 08:09:05;;;;;;;8.15;2.35;;;;;;;21.15;29.80;101879.13;5066194;28;20059;-55
2023/06/05 08:11:32;;;;;;;5.38;2.00;;;;;;;21.17;28.51;101874.47;5071469;28;20055;-55
2023/06/05 08:13:59;;;;;;;3.03;1.42;;;;;;;21.24;28.77;101878.47;5067422;28;20381;-55
2023/06/05 08:16:25;;;;;;;3.30;1.13;;;;;;;21.43;28.67;101876.13;5071540;28;20043;-55
2023/06/05 08:18:52;;;;;;;17.30;2.30;;;;;;;21.51;28.38;101866.66;5067943;28;20073;-55
2023/06/05 08:21:18;;;;;;;6.45;1.60;;;;;;;21.57;28.20;101869.75;5071940;28;20143;-55
2023/06/05 08:23:45;;;;;;;2.63;1.38;;;;;;;21.65;28.45;101871.03;5072308;28;20101;-55
2023/06/05 08:26:12;;;;;;;5.35;2.38;;;;;;;21.63;28.18;101861.22;5070880;28;20052;-55
2023/06/05 08:28:40;;;;;;;8.82;1.38;;;;;;;21.71;27.62;101866.03;5072494;28;20427;-55
2023/06/05 08:31:10;;;;;;;5.50;1.25;;;;;;;21.60;27.72;101858.75;5072394;28;20143;-55
2023/06/05 08:33:37;;;;;;;4.70;1.17;;;;;;;21.33;28.07;101872.38;5072500;28;20048;-55
2023/06/05 08:36:05;;;;;;;3.70;1.63;;;;;;;21.52;27.49;101866.53;5072147;28;20045;-56
2023/06/05 08:38:33;;;;;;;5.07;1.38;;;;;;;21.65;27.49;101861.13;5071419;28;20052;-56
2023/06/05 08:41:01;;;;;;;5.15;1.42;;;;;;;21.80;27.53;101859.94;5072592;28;20361;-56
2023/06/05 08:43:28;;;;;;;5.93;1.77;;;;;;;21.71;27.20;101870.53;5071416;28;20054;-56
2023/06/05 08:45:58;;;;;;;4.20;1.33;;;;;;;22.00;26.92;101855.75;5071861;28;20449;-56
2023/06/05 08:48:25;;;;;;;9.93;1.40;;;;;;;22.14;26.14;101851.97;5072594;28;20056;-56
2023/06/05 08:50:54;;;;;;;3.70;1.27;;;;;;;21.84;26.52;101859.72;5072287;28;20108;-56
2023/06/05 08:53:26;;;;;;;5.05;1.70;;;;;;;21.54;26.94;101844.91;5071056;28;20127;-56
2023/06/05 08:55:54;;;;;;;5.65;1.60;;;;;;;21.90;26.92;101851.19;5071509;28;20136;-56
2023/06/05 08:58:21;;;;;;;11.57;1.58;;;;;;;22.06;26.34;101854.41;5072278;28;20419;-56
2023/06/05 09:00:49;;;;;;;7.68;1.30;;;;;;;22.24;26.32;101851.28;5076499;28;20128;-56
2023/06/05 09:03:18;;;;;;;5.95;1.70;;;;;;;22.35;25.55;101848.63;5076764;28;20056;-55
2023/06/05 09:05:45;;;;;;;6.68;1.50;;;;;;;22.43;25.34;101851.56;5075486;28;20303;-55
2023/06/05 09:08:11;;;;;;;5.30;1.38;;;;;;;22.36;24.89;101855.72;5076530;28;20052;-55
2023/06/05 09:10:38;;;;;;;4.30;1.20;;;;;;;22.58;25.34;101854.03;5074886;28;20155;-55
2023/06/05 09:13:05;;;;;;;4.15;1.02;;;;;;;22.71;25.12;101852.09;5069538;28;20135;-56
2023/06/05 09:15:34;;;;;;;4.70;1.30;;;;;;;22.62;25.22;101844.72;5064796;28;20040;-55
2023/06/05 09:18:08;;;;;;;8.93;1.88;;;;;;;22.70;25.52;101847.66;5062037;28;20062;-55
2023/06/05 09:20:45;;;;;;;3.90;1.10;;;;;;;22.83;25.60;101848.38;5064192;28;20052;-55
2023/06/05 09:23:24;;;;;;;4.82;1.27;;;;;;;23.03;25.35;101854.00;5060206;28;20041;-55
2023/06/05 09:25:57;;;;;;;2.80;1.10;;;;;;;22.89;25.08;101853.28;5061385;28;20139;-56
2023/06/05 09:28:24;;;;;;;5.15;1.10;;;;;;;22.66;25.01;101846.22;5063854;28;20080;-56
2023/06/05 09:30:56;;;;;;;4.70;1.27;;;;;;;22.81;24.88;101850.34;5070898;28;20084;-55
2023/06/05 09:33:28;;;;;;;4.57;1.05;;;;;;;23.06;24.97;101853.75;5078172;28;20063;-56
2023/06/05 09:36:08;;;;;;;5.60;1.60;;;;;;;23.22;24.36;101851.56;5075326;28;20045;-55
2023/06/05 09:38:37;;;;;;;6.18;1.60;;;;;;;23.17;24.38;101850.22;5079508;28;20200;-55
2023/06/05 09:41:20;;;;;;;9.70;1.92;;;;;;;23.31;24.13;101846.38;5076025;28;20052;-57
2023/06/05 09:43:49;;;;;;;3.00;1.13;;;;;;;23.60;24.56;101844.81;5075040;28;20098;-55
2023/06/05 09:46:17;;;;;;;;;;;;;;;23.50;24.32;101841.16;5074000;28;20052;-55
2023/06/05 09:48:57;;;;;;;3.83;1.38;;;;;;;23.95;24.17;101846.41;5073118;28;19960;-55
2023/06/05 09:51:23;;;;;;;7.95;1.75;;;;;;;23.70;23.65;101835.94;5082272;28;20080;-55
2023/06/05 09:53:51;;;;;;;5.00;1.50;;;;;;;23.47;23.75;101827.94;5073327;28;20095;-55
2023/06/05 09:56:19;;;;;;;6.38;1.27;;;;;;;23.28;23.74;101831.31;5070122;28;20538;-55
2023/06/05 09:58:51;;;;;;;3.03;1.27;;;;;;;23.56;24.03;101829.88;5071242;28;20105;-55
2023/06/05 10:01:24;;;;;;;4.97;1.27;;;;;;;23.49;23.31;101827.81;5071225;28;20048;-55
2023/06/05 10:04:01;;;;;;;8.25;1.58;;;;;;;23.44;23.80;101825.47;5070707;28;20383;-55
2023/06/05 10:06:28;;;;;;;8.90;1.20;;;;;;;23.73;24.10;101814.09;5061982;28;20063;-56
2023/06/05 10:08:56;;;;;;;8.93;1.83;;;;;;;23.91;23.59;101806.28;5065184;28;20121;-55
2023/06/05 10:11:25;;;;;;;3.17;1.65;;;;;;;23.92;23.83;101798.06;5071093;28;20533;-56
2023/06/05 10:13:53;;;;;;;2.72;1.50;;;;;;;23.98;23.51;101808.34;5063945;28;20049;-55
2023/06/05 10:16:20;;;;;;;3.50;1.33;;;;;;;23.98;22.93;101802.94;5079293;28;20072;-56
2023/06/05 10:18:55;;;;;;;2.83;1.50;;;;;;;24.37;22.63;101807.69;5077028;28;20052;-55
2023/06/05 10:21:23;;;;;;;4.25;1.52;;;;;;;24.31;22.95;101805.56;5079822;28;20462;-55
2023/06/05 10:24:17;;;;;;;3.08;1.73;;;;;;;24.40;22.59;101798.47;5091157;28;20606;-55
2023/06/05 10:27:05;;;;;;;4.75;1.08;;;;;;;24.19;22.59;101788.56;5082115;28;20535;-57
2023/06/05 10:29:50;;;;;;;4.47;1.27;;;;;;;23.70;23.31;101787.34;5091872;28;20087;-56
2023/06/05 10:32:32;;;;;;;8.70;1.92;;;;;;;23.66;23.35;101781.38;5082679;28;20048;-55
2023/06/05 10:35:06;;;;;;;3.53;1.50;;;;;;;23.86;23.24;101787.78;5057429;28;20045;-56
2023/06/05 10:37:41;;;;;;;4.28;2.08;;;;;;;23.71;23.22;101778.28;5074970;28;20054;-56
2023/06/05 10:40:09;;;;;;;5.75;1.55;;;;;;;24.17;23.08;101779.72;5079260;28;20056;-55
2023/06/05 10:42:36;;;;;;;3.55;1.67;;;;;;;24.50;22.40;101777.75;5079209;28;20055;-55
2023/06/05 10:45:03;;;;;;;5.57;2.22;;;;;;;24.50;22.39;101780.44;5081868;28;20052;-55
2023/06/05 10:47:33;;;;;;;3.80;1.38;;;;;;;25.48;21.16;101776.13;5077625;28;20056;-55
2023/06/05 10:50:15;;;;;;;4.00;1.65;;;;;;;25.70;20.96;101779.53;5084559;28;20163;-56
2023/06/05 10:52:43;;;;;;;4.65;1.42;;;;;;;26.36;20.17;101770.53;5082848;28;20060;-56
2023/06/05 10:55:12;;;;;;;2.53;1.50;;;;;;;27.52;19.49;101773.53;5082931;28;20528;-54
2023/06/05 10:58:03;;;;;;;6.82;1.63;;;;;;;26.36;19.95;101767.84;5088215;28;20437;-56
2023/06/05 11:00:31;;;;;;;6.22;1.33;;;;;;;28.07;18.80;101769.75;5084729;28;20135;-55
2023/06/05 11:02:58;;;;;;;5.85;1.48;;;;;;;26.16;19.84;101767.91;5094629;28;20052;-55
2023/06/05 11:05:27;;;;;;;7.82;1.52;;;;;;;26.63;19.62;101761.56;5076472;28;20106;-55
2023/06/05 11:08:14;;;;;;;4.97;1.67;;;;;;;28.49;17.54;101768.06;5089357;28;20367;-56
2023/06/05 11:11:04;;;;;;;4.65;1.58;;;;;;;29.23;17.05;101762.88;5054465;28;20049;-55
2023/06/05 11:13:56;;;;;;;2.25;1.00;;;;;;;29.99;17.21;101741.72;5087578;28;20047;-55
2023/06/05 11:16:30;;;;;;;4.88;1.80;;;;;;;29.75;17.05;101773.44;5087128;28;20048;-55
2023/06/05 11:19:15;;;;;;;11.73;1.80;;;;;;;30.69;16.47;101776.44;5053174;28;20114;-55
2023/06/05 11:22:03;;;;;;;6.40;1.52;;;;;;;31.99;14.87;101767.44;5072874;28;20048;-55
2023/06/05 11:24:31;;;;;;;9.38;1.42;;;;;;;32.04;14.67;101772.31;5083146;28;20048;-55
2023/06/05 11:26:57;;;;;;;2.28;1.10;;;;;;;31.82;14.83;101765.91;5072660;28;20040;-55
2023/06/05 11:29:25;;;;;;;4.25;1.67;;;;;;;31.38;15.05;101756.53;5073140;28;20421;-55
2023/06/05 11:31:52;;;;;;;3.95;1.40;;;;;;;31.02;15.62;101750.84;5083442;28;20052;-55